CheckWX is a tool to help pilots better visualize weather data.  It is not intended as a substitute for an official pre-flight weather briefing.

02:07:28 UTC

KGAO METAR
South Lafourche Leonard Miller Jr Airport
Galliano, Louisiana, USA
Current

12 mins ago

KGAO 180155Z AUTO 16003KT 5SM HZ OVC012 22/19 A2985 RMK AO2 T02200191
Observed
Feb-18 @ 01:55 UTC
Wind
  • 160° at 3 KTS
Visibility
5 SM
Flight Rules
MVFR
Conditions
Haze
Cloud Levels
  • Overcast at 1,200' AGL
Temperature
22°C / 72°F
Dewpoint
19°C / 66°F
Humidity
83%
Altimeter
29.85" Hg
Pressure
1010.82 hPa
Previous

32 mins ago

KGAO 180135Z AUTO 17004KT 7SM SCT012 BKN018 OVC024 22/19 A2985 RMK AO2 T02180190
Observed
Feb-18 @ 01:35 UTC
Wind
  • 170° at 4 KTS
Visibility
7 SM
Flight Rules
MVFR
Cloud Levels
  • Scattered at 1,200' AGL
  • Broken at 1,800' AGL
  • Overcast at 2,400' AGL
Temperature
22°C / 72°F
Dewpoint
19°C / 66°F
Humidity
83%
Altimeter
29.85" Hg
Pressure
1010.82 hPa
Previous

52 mins ago

KGAO 180115Z AUTO 00000KT 5SM HZ BKN014 OVC024 22/19 A2984 RMK AO2 T02150186
Observed
Feb-18 @ 01:15 UTC
Visibility
5 SM
Flight Rules
MVFR
Conditions
Haze
Cloud Levels
  • Broken at 1,400' AGL
  • Overcast at 2,400' AGL
Temperature
22°C / 72°F
Dewpoint
19°C / 66°F
Humidity
83%
Altimeter
29.84" Hg
Pressure
1010.52 hPa